AirNav   Everest Fuels
 
 549 users online  

KTFP McCampbell-Porter Airport
Ingleside, Texas, USA

GOING TO INGLESIDE?


FAA INFORMATION EFFECTIVE 02 JANUARY 2020

Location

FAA Identifier: TFP
Lat/Long: 27-54-46.9000N 097-12-41.4000W
27-54.781667N 097-12.690000W
27.9130278,-97.2115000
(estimated)
Elevation: 17.6 ft. / 5 m (estimated)
Variation: 07E (1985)
From city: 2 miles N of INGLESIDE, TX
Time zone: UTC -6 (UTC -5 during Daylight Saving Time)
Zip code: 78336

Airport Operations

Airport use: Open to the public
Activation date: 03/1991
Control tower: no
ARTCC: HOUSTON CENTER
FSS: SAN ANGELO FLIGHT SERVICE STATION
NOTAMs facility: SJT (NOTAM-D service available)
Attendance: 0800-1800
Wind indicator: lighted
Segmented circle: yes
Lights: MIRL RY 13/31 PRESET LOW INTST; TO INCR INTST ACTVT - CTAF (122.7).
Beacon: white-green (lighted land airport)
Operates sunset to sunrise.

Airport Communications

CTAF/UNICOM: 122.7
WX AWOS-3: 118.775 (361-758-8961)
CORPUS APPROACH: 120.9
CORPUS DEPARTURE: 120.9
WX AWOS-3 at RAS (9 nm SE): 118.425 (361-749-0537)
WX ASOS at RKP (14 nm NE): 119.275 (361-729-2372)
WX ASOS at CRP (18 nm SW): PHONE 361-289-0191
WX AWOS-1 at T69 (19 nm NW): 118.25 (361-364-1844)

Nearby radio navigation aids

VOR radial/distance  VOR name  Freq  Var
CRPr078/12.4CORPUS CHRISTI VORTAC115.5009E

 
NDB name  Hdg/Dist  Freq  Var  ID
MELLON RANCH175/22.037506EMNO -- -. ---

Airport Services

Fuel available: 100LL JET-A
FUEL SELF-SERVICE.
Parking: hangars and tiedowns
Airframe service: MAJOR
Powerplant service: MAJOR

Runway Information

Runway 13/31

Dimensions: 5000 x 75 ft. / 1524 x 23 m
Surface: asphalt, in good condition
Runway edge lights: medium intensity
RUNWAY 13  RUNWAY 31
Latitude: 27-55.096700N27-54.466995N
Longitude: 097-12.989438W097-12.389185W
Elevation: 15.0 ft.13.2 ft.
Traffic pattern: leftleft
Runway heading: 133 magnetic, 140 true313 magnetic, 320 true
Markings: nonprecision, in good conditionnonprecision, in good condition
Visual slope indicator: 2-light PAPI on left (3.00 degrees glide path)2-light PAPI on left (3.00 degrees glide path)
Touchdown point: yes, no lightsyes, no lights

Airport Ownership and Management from official FAA records

Ownership: Publicly-owned
Owner: SAN PATRICIO COUNTY
400 WEST SINTON ST.
SINTON, TX 78387
Phone (361) 226-0112
Manager: GARY LEE DAVIS
3141 FM 3512
ARANSAS PASS, TX 78336
Phone (361) 226-0112
317-410-0724

Airport Operational Statistics

Aircraft based on the field: 41
Single engine airplanes: 34
Multi engine airplanes: 5
Jet airplanes: 1
Helicopters: 1
    
Aircraft operations: avg 85/day *
48% local general aviation
32% transient general aviation
19% military
* for 12-month period ending 09 March 2017

Additional Remarks

FOR CD CTC CORPUS CHRISTI APCH AT 361-299-4230.

Instrument Procedures

NOTE: All procedures below are presented as PDF files. If you need a reader for these files, you should download the free Adobe Reader.

NOT FOR NAVIGATION. Please procure official charts for flight.
FAA instrument procedures published for use from 02 January 2020 at 0901Z to 30 January 2020 at 0900Z.

 
IAPs - Instrument Approach Procedures
RNAV (GPS) RWY 13   download (213KB)
RNAV (GPS) RWY 31   download (214KB)
NOTE: Special Alternate Minimums apply   download (29KB)

Other nearby airports with instrument procedures:

KRAS - Mustang Beach Airport (9 nm SE)
KRKP - Aransas County Airport (14 nm NE)
KNGP - Corpus Christi Naval Air Station/Truax Field (14 nm S)
KCRP - Corpus Christi International Airport (18 nm SW)
T69 - Alfred C 'Bubba' Thomas Airport (19 nm NW)
 
Loc | Ops | Rwys | IFR | FBO | Links
Com | Nav | Svcs | Stats | Notes
Area around KTFP (McCampbell-Porter Airport)
 
Road maps at: MapQuest Bing Google
 
Aerial photo
WARNING: Photo may not be current or correct
Aerial photo of KTFP (McCampbell-Porter Airport)
Do you have a better or more recent aerial photo of McCampbell-Porter Airport that you would like to share? If so, please send us your photo.

 
Sectional chart

 
Airport diagram
CAUTION: Diagram may not be current
Diagram of KTFP (McCampbell-Porter Airport)
 
Airport distance calculator
Flying to McCampbell-Porter Airport? Find the distance to fly.

From to KTFP

Sunrise and sunset
Times for 22-Jan-2020
 Local
(UTC-6)
 Zulu
(UTC)
Morning civil twilight06:5612:56
Sunrise07:2113:21
Sunset18:0000:00
Evening civil twilight18:2500:25

Current date and time
Zulu (UTC)  22-Jan-2020 06:26:09
Local (UTC-6)  22-Jan-2020 00:26:09
 
METAR
KTFP 220615Z AUTO 14014G19KT 10SM BKN035 OVC047 18/12 A3017 RMK AO2 T01750118 PNO
KRAS 
9nm SE 
220615Z AUTO 13016G20KT 10SM BKN033 BKN040 OVC055 17/12 A3019 RMK AO2 T01730116
KRKP 
13nm NE 
220553Z AUTO 13014G22KT 10SM BKN037 OVC060 18/11 A3019 RMK AO2 SLP226 T01780106 10178 20161 401940078 58034
KNGP 
14nm S 
220456Z 14015KT 10SM BKN035 OVC060 17/12 A3022 RMK AO2 SLP232 T01720122 $
KCRP 
18nm SW 
220551Z 14014KT 10SM FEW038 OVC060 17/11 A3018 RMK AO2 SLP219 T01720111 10172 20161 401940067 58035
TAF
KNGP 
14nm S 
2123/2223 11018G26KT 9999 FEW035 BKN070 510005 542409 543309 544203 QNH3022INS TEMPO 2121/2203 11019G27KT SCT030 OVC060 FM220300 12018G26KT 9999 BKN030 OVC050 510005 542409 543309 544203 QNH3015INS FM220700 13015G23KT 9999 VCSH FEW015 OVC025 651109 652006 542409 543309 544203 QNH3008INS FM221000 13013G18KT 9999 VCSH SCT012 OVC020 651109 652006 542409 543309 544203 QNH3006INS FM221200 13013G18KT 9999 -SHRA FEW009 OVC012 651109 652006 542409 543309 544203 QNH3003INS TEMPO 2212/2216 4800 SHRA BR BK
KCRP 
18nm SW 
220524Z 2206/2306 13014KT P6SM FEW035 OVC060 FM221000 13012KT P6SM OVC025 FM221400 13014KT P6SM -SHRA SCT007 OVC012 TEMPO 2215/2219 2SM RA BKN009 FM221900 16018KT 6SM -SHRA BR OVC012
NOTAMs
Click for the latest NOTAMs
NOTAMs are issued by the DoD/FAA and will open in a separate window not controlled by AirNav.

 

 
 

FBO, Fuel Providers, and Aircraft Ground Support

  
 Business Name 
 
 Contact 
 
 Services / Description 
 
Fuel Prices
 
Comments
  
Corpus Christi Jet Center UNICOM 122.70
361-758-2000
[web site]
[email]
We will match KCRP contract fuel rates!
More info and photos of Corpus Christi Jet Center
Avfuel
100LL Jet A
FS $4.60 $4.60 
SS $4.20 $4.20 
 Updated 16-Jan-2020
 
   5 read write
FS=Full service
SS=Self service
Update Fuel Prices
 

Would you like to see your business listed on this page?

 If your business provides an interesting product or service to pilots, flight crews, aircraft, or users of the McCampbell-Porter Airport, you should consider listing it here.  To start the listing process, click on the button below
 
Add a business
 

Other Pages about McCampbell-Porter Airport

Update a link
 
Copyright © AirNav, LLC. All rights reserved. Privacy Policy  Contact